Milton, Delaware
Current Conditions -  °F | °C
As of 10:54 PM on Thursday 20 Nov 2014 (Local Time) from KGED Reporting Station
Clear Clear  
Wind Chill: 33°   Ceiling: Unl
Heat Index: 38°   Visibility: 10mi
Dew Point: 17°   Wind: 6mph
Humidity: 43%   Direction: NA
Pressure: 30.07"   Gusts: NA
Location:  38.78°N, 75.31°W
Report Text: KGED 210354Z AUTO VRB05KT 10SM CLR 03/M08 A3007 RMK AO2 SLP183 T00331083
Loading
Personal Weather Stations






























Interactive Weather Map New forecast layout! Learn more

10-Day Weather Forecast

Advertisements
Track Severe Weather on mobile